sensor_id;sensor_type;location;lat;lon;timestamp;pressure;altitude;pressure_sealevel;temperature;humidity
67738;BME280;54534;43.612;1.572;2023-03-04T00:00:12;99744.44;;;18.16;37.07
67738;BME280;54534;43.612;1.572;2023-03-04T00:02:38;99745.41;;;18.15;37.10
67738;BME280;54534;43.612;1.572;2023-03-04T00:05:03;99748.16;;;18.14;37.42
67738;BME280;54534;43.612;1.572;2023-03-04T00:07:29;99754.47;;;18.12;37.11
67738;BME280;54534;43.612;1.572;2023-03-04T00:09:54;99754.47;;;18.12;37.25
67738;BME280;54534;43.612;1.572;2023-03-04T00:12:20;99752.00;;;18.09;37.34
67738;BME280;54534;43.612;1.572;2023-03-04T00:14:45;99754.75;;;18.08;37.12
67738;BME280;54534;43.612;1.572;2023-03-04T00:17:11;99752.22;;;18.06;37.15
67738;BME280;54534;43.612;1.572;2023-03-04T00:19:36;99750.50;;;18.05;36.96
67738;BME280;54534;43.612;1.572;2023-03-04T00:22:03;99760.31;;;18.05;37.15
67738;BME280;54534;43.612;1.572;2023-03-04T00:24:28;99752.41;;;18.03;37.16
67738;BME280;54534;43.612;1.572;2023-03-04T00:26:54;99754.22;;;18.03;36.94
67738;BME280;54534;43.612;1.572;2023-03-04T00:29:19;99755.19;;;18.01;36.76
67738;BME280;54534;43.612;1.572;2023-03-04T00:31:46;99757.94;;;18.00;36.81
67738;BME280;54534;43.612;1.572;2023-03-04T00:34:11;99759.88;;;17.98;36.66
67738;BME280;54534;43.612;1.572;2023-03-04T00:36:37;99752.84;;;17.97;36.92
67738;BME280;54534;43.612;1.572;2023-03-04T00:39:02;99755.50;;;17.97;36.76
67738;BME280;54534;43.612;1.572;2023-03-04T00:41:28;99756.47;;;17.96;36.60
67738;BME280;54534;43.612;1.572;2023-03-04T00:43:53;99753.06;;;17.94;36.95
67738;BME280;54534;43.612;1.572;2023-03-04T00:46:19;99752.31;;;17.92;36.86
67738;BME280;54534;43.612;1.572;2023-03-04T00:48:44;99751.47;;;17.91;36.52
67738;BME280;54534;43.612;1.572;2023-03-04T00:51:09;99753.38;;;17.89;36.75
67738;BME280;54534;43.612;1.572;2023-03-04T00:53:35;99754.34;;;17.88;36.41
67738;BME280;54534;43.612;1.572;2023-03-04T00:56:00;99750.94;;;17.86;36.44
67738;BME280;54534;43.612;1.572;2023-03-04T00:58:26;99753.59;;;17.86;36.30
67738;BME280;54534;43.612;1.572;2023-03-04T01:00:51;99752.00;;;17.83;36.75
67738;BME280;54534;43.612;1.572;2023-03-04T01:03:17;99739.66;;;17.82;36.68
67738;BME280;54534;43.612;1.572;2023-03-04T01:05:42;99740.59;;;17.81;36.43
67738;BME280;54534;43.612;1.572;2023-03-04T01:08:07;99742.44;;;17.81;36.49
67738;BME280;54534;43.612;1.572;2023-03-04T01:10:33;99739.84;;;17.79;36.42
67738;BME280;54534;43.612;1.572;2023-03-04T01:12:58;99741.66;;;17.78;36.39
67738;BME280;54534;43.612;1.572;2023-03-04T01:15:24;99736.44;;;17.77;36.69
67738;BME280;54534;43.612;1.572;2023-03-04T01:17:49;99738.38;;;17.75;36.43
67738;BME280;54534;43.612;1.572;2023-03-04T01:20:15;99739.22;;;17.75;36.34
67738;BME280;54534;43.612;1.572;2023-03-04T01:22:41;99738.38;;;17.75;36.07
67738;BME280;54534;43.612;1.572;2023-03-04T01:25:08;99739.44;;;17.72;36.39
67738;BME280;54534;43.612;1.572;2023-03-04T01:27:34;99738.56;;;17.72;36.20
67738;BME280;54534;43.612;1.572;2023-03-04T01:29:59;99735.19;;;17.70;36.05
67738;BME280;54534;43.612;1.572;2023-03-04T01:32:25;99737.84;;;17.70;36.51
67738;BME280;54534;43.612;1.572;2023-03-04T01:34:50;99736.97;;;17.69;36.31
67738;BME280;54534;43.612;1.572;2023-03-04T01:37:15;99719.41;;;17.66;36.41
67738;BME280;54534;43.612;1.572;2023-03-04T01:39:41;99721.22;;;17.66;36.03
67738;BME280;54534;43.612;1.572;2023-03-04T01:42:16;99728.34;;;17.65;36.40
67738;BME280;54534;43.612;1.572;2023-03-04T01:44:43;99726.66;;;17.64;36.26
67738;BME280;54534;43.612;1.572;2023-03-04T01:47:09;99719.63;;;17.63;36.01
67738;BME280;54534;43.612;1.572;2023-03-04T01:49:34;99724.94;;;17.63;36.59
67738;BME280;54534;43.612;1.572;2023-03-04T01:52:00;99717.94;;;17.62;36.33
67738;BME280;54534;43.612;1.572;2023-03-04T01:54:25;99714.50;;;17.60;36.44
67738;BME280;54534;43.612;1.572;2023-03-04T01:56:51;99705.69;;;17.60;36.12
67738;BME280;54534;43.612;1.572;2023-03-04T01:59:22;99713.66;;;17.60;36.20
67738;BME280;54534;43.612;1.572;2023-03-04T02:01:48;99704.09;;;17.57;36.11
67738;BME280;54534;43.612;1.572;2023-03-04T02:04:16;99697.09;;;17.56;36.15
67738;BME280;54534;43.612;1.572;2023-03-04T02:06:43;99702.47;;;17.54;36.32
67738;BME280;54534;43.612;1.572;2023-03-04T02:09:10;99700.69;;;17.55;36.21
67738;BME280;54534;43.612;1.572;2023-03-04T02:11:37;99699.94;;;17.53;36.32
67738;BME280;54534;43.612;1.572;2023-03-04T02:14:03;99698.22;;;17.52;36.23
67738;BME280;54534;43.612;1.572;2023-03-04T02:16:30;99699.19;;;17.51;36.38
67738;BME280;54534;43.612;1.572;2023-03-04T02:18:55;99699.19;;;17.51;36.47
67738;BME280;54534;43.612;1.572;2023-03-04T02:21:26;99694.81;;;17.50;36.33
67738;BME280;54534;43.612;1.572;2023-03-04T02:26:37;99688.78;;;17.48;36.31
67738;BME280;54534;43.612;1.572;2023-03-04T02:29:05;99685.25;;;17.47;36.28
67738;BME280;54534;43.612;1.572;2023-03-04T02:31:35;99685.38;;;17.45;35.99
67738;BME280;54534;43.612;1.572;2023-03-04T02:34:10;99686.31;;;17.44;36.33
67738;BME280;54534;43.612;1.572;2023-03-04T02:36:37;99684.63;;;17.43;36.12
67738;BME280;54534;43.612;1.572;2023-03-04T02:39:32;99676.75;;;17.42;36.36
67738;BME280;54534;43.612;1.572;2023-03-04T02:41:56;99683.03;;;17.41;36.12
67738;BME280;54534;43.612;1.572;2023-03-04T02:44:25;99671.44;;;17.42;36.37
67738;BME280;54534;43.612;1.572;2023-03-04T02:46:51;99674.19;;;17.40;36.41
67738;BME280;54534;43.612;1.572;2023-03-04T02:49:18;99669.81;;;17.39;36.39
67738;BME280;54534;43.612;1.572;2023-03-04T02:51:44;99672.50;;;17.39;36.35
67738;BME280;54534;43.612;1.572;2023-03-04T02:54:20;99664.84;;;17.34;36.20
67738;BME280;54534;43.612;1.572;2023-03-04T02:56:57;99664.72;;;17.36;36.25
67738;BME280;54534;43.612;1.572;2023-03-04T02:59:23;99663.03;;;17.35;36.06
67738;BME280;54534;43.612;1.572;2023-03-04T03:01:49;99664.94;;;17.33;35.97
67738;BME280;54534;43.612;1.572;2023-03-04T03:04:14;99665.78;;;17.33;36.16
67738;BME280;54534;43.612;1.572;2023-03-04T03:06:40;99670.25;;;17.33;36.25
67738;BME280;54534;43.612;1.572;2023-03-04T03:09:06;99659.72;;;17.31;36.18
67738;BME280;54534;43.612;1.572;2023-03-04T03:11:32;99666.84;;;17.31;36.17
67738;BME280;54534;43.612;1.572;2023-03-04T03:13:58;99661.63;;;17.29;35.98
67738;BME280;54534;43.612;1.572;2023-03-04T03:16:24;99664.28;;;17.29;36.04
67738;BME280;54534;43.612;1.572;2023-03-04T03:18:49;99660.78;;;17.29;36.16
67738;BME280;54534;43.612;1.572;2023-03-04T03:21:15;99666.22;;;17.27;36.26
67738;BME280;54534;43.612;1.572;2023-03-04T03:23:40;99664.41;;;17.28;36.23
67738;BME280;54534;43.612;1.572;2023-03-04T03:26:06;99657.38;;;17.27;36.04
67738;BME280;54534;43.612;1.572;2023-03-04T03:28:31;99661.94;;;17.25;36.20
67738;BME280;54534;43.612;1.572;2023-03-04T03:30:57;99661.94;;;17.25;36.18
67738;BME280;54534;43.612;1.572;2023-03-04T03:33:22;99658.44;;;17.24;36.03
67738;BME280;54534;43.612;1.572;2023-03-04T03:35:48;99658.53;;;17.22;36.22
67738;BME280;54534;43.612;1.572;2023-03-04T03:38:13;99658.53;;;17.22;36.12
67738;BME280;54534;43.612;1.572;2023-03-04T03:40:39;99658.63;;;17.21;35.99
67738;BME280;54534;43.612;1.572;2023-03-04T03:43:04;99660.44;;;17.20;36.36
67738;BME280;54534;43.612;1.572;2023-03-04T03:45:29;99664.06;;;17.19;36.16
67738;BME280;54534;43.612;1.572;2023-03-04T03:47:55;99662.34;;;17.18;36.15
67738;BME280;54534;43.612;1.572;2023-03-04T03:50:20;99657.03;;;17.18;36.11
67738;BME280;54534;43.612;1.572;2023-03-04T03:52:46;99656.19;;;17.18;35.99
67738;BME280;54534;43.612;1.572;2023-03-04T03:55:11;99661.50;;;17.18;35.96
67738;BME280;54534;43.612;1.572;2023-03-04T03:57:37;99661.41;;;17.19;35.97
67738;BME280;54534;43.612;1.572;2023-03-04T04:00:04;99656.19;;;17.18;36.07
67738;BME280;54534;43.612;1.572;2023-03-04T04:02:30;99653.44;;;17.19;36.09
67738;BME280;54534;43.612;1.572;2023-03-04T04:04:55;99657.78;;;17.20;35.86
67738;BME280;54534;43.612;1.572;2023-03-04T04:07:20;99662.16;;;17.21;36.05
67738;BME280;54534;43.612;1.572;2023-03-04T04:09:46;99654.19;;;17.21;35.82
67738;BME280;54534;43.612;1.572;2023-03-04T04:12:17;99656.63;;;17.25;35.61
67738;BME280;54534;43.612;1.572;2023-03-04T04:14:42;99660.97;;;17.26;35.95
67738;BME280;54534;43.612;1.572;2023-03-04T04:17:08;99654.72;;;17.27;35.97
67738;BME280;54534;43.612;1.572;2023-03-04T04:19:34;99655.47;;;17.29;35.93
67738;BME280;54534;43.612;1.572;2023-03-04T04:22:01;99656.31;;;17.29;35.84
67738;BME280;54534;43.612;1.572;2023-03-04T04:24:26;99654.41;;;17.31;35.91
67738;BME280;54534;43.612;1.572;2023-03-04T04:26:52;99646.44;;;17.31;36.03
67738;BME280;54534;43.612;1.572;2023-03-04T04:29:17;99654.31;;;17.33;36.25
67738;BME280;54534;43.612;1.572;2023-03-04T04:31:43;99661.22;;;17.36;35.81
67738;BME280;54534;43.612;1.572;2023-03-04T04:34:08;99650.59;;;17.36;35.50
67738;BME280;54534;43.612;1.572;2023-03-04T04:36:34;99655.78;;;17.37;35.77
67738;BME280;54534;43.612;1.572;2023-03-04T04:38:59;99649.53;;;17.38;35.74
67738;BME280;54534;43.612;1.572;2023-03-04T04:41:30;99655.59;;;17.40;35.59
67738;BME280;54534;43.612;1.572;2023-03-04T04:43:56;99654.75;;;17.40;35.86
67738;BME280;54534;43.612;1.572;2023-03-04T04:46:22;99652.94;;;17.40;35.59
67738;BME280;54534;43.612;1.572;2023-03-04T04:48:47;99650.16;;;17.42;35.55
67738;BME280;54534;43.612;1.572;2023-03-04T04:51:13;99657.19;;;17.43;35.70
67738;BME280;54534;43.612;1.572;2023-03-04T04:53:38;99651.00;;;17.42;35.63
67738;BME280;54534;43.612;1.572;2023-03-04T04:56:13;99654.41;;;17.44;35.59
67738;BME280;54534;43.612;1.572;2023-03-04T04:58:39;99653.47;;;17.45;35.26
67738;BME280;54534;43.612;1.572;2023-03-04T05:01:05;99648.34;;;17.42;35.59
67738;BME280;54534;43.612;1.572;2023-03-04T05:03:32;99661.44;;;17.45;35.49
67738;BME280;54534;43.612;1.572;2023-03-04T05:05:58;99661.44;;;17.45;35.71
67738;BME280;54534;43.612;1.572;2023-03-04T05:08:24;99655.16;;;17.47;35.42
67738;BME280;54534;43.612;1.572;2023-03-04T05:10:49;99662.19;;;17.48;35.39
67738;BME280;54534;43.612;1.572;2023-03-04T05:13:14;99659.53;;;17.48;35.68
67738;BME280;54534;43.612;1.572;2023-03-04T05:15:40;99666.56;;;17.49;35.56
67738;BME280;54534;43.612;1.572;2023-03-04T05:18:05;99662.06;;;17.49;35.58
67738;BME280;54534;43.612;1.572;2023-03-04T05:20:31;99656.88;;;17.48;35.40
67738;BME280;54534;43.612;1.572;2023-03-04T05:22:56;99654.94;;;17.50;35.56
67738;BME280;54534;43.612;1.572;2023-03-04T05:25:22;99658.47;;;17.50;35.13
67738;BME280;54534;43.612;1.572;2023-03-04T05:27:47;99656.66;;;17.51;35.32
67738;BME280;54534;43.612;1.572;2023-03-04T05:30:13;99666.31;;;17.52;35.55
67738;BME280;54534;43.612;1.572;2023-03-04T05:32:38;99668.97;;;17.52;35.55
67738;BME280;54534;43.612;1.572;2023-03-04T05:35:04;99661.00;;;17.52;35.32
67738;BME280;54534;43.612;1.572;2023-03-04T05:37:29;99662.84;;;17.51;35.47
67738;BME280;54534;43.612;1.572;2023-03-04T05:39:55;99663.66;;;17.52;35.23
67738;BME280;54534;43.612;1.572;2023-03-04T05:42:20;99663.66;;;17.52;35.51
67738;BME280;54534;43.612;1.572;2023-03-04T05:44:46;99668.03;;;17.53;35.25
67738;BME280;54534;43.612;1.572;2023-03-04T05:47:11;99674.22;;;17.53;35.35
67738;BME280;54534;43.612;1.572;2023-03-04T05:49:36;99671.56;;;17.53;35.53
67738;BME280;54534;43.612;1.572;2023-03-04T05:52:02;99676.75;;;17.55;35.42
67738;BME280;54534;43.612;1.572;2023-03-04T05:54:27;99679.41;;;17.55;35.22
67738;BME280;54534;43.612;1.572;2023-03-04T05:56:53;99679.41;;;17.55;35.21
67738;BME280;54534;43.612;1.572;2023-03-04T05:59:18;99681.13;;;17.56;35.22
67738;BME280;54534;43.612;1.572;2023-03-04T06:01:45;99678.47;;;17.56;35.11
67738;BME280;54534;43.612;1.572;2023-03-04T06:04:11;99683.78;;;17.56;35.41
67738;BME280;54534;43.612;1.572;2023-03-04T06:06:36;99685.59;;;17.55;35.29
67738;BME280;54534;43.612;1.572;2023-03-04T06:09:02;99689.09;;;17.56;35.15
67738;BME280;54534;43.612;1.572;2023-03-04T06:11:28;99691.66;;;17.58;35.03
67738;BME280;54534;43.612;1.572;2023-03-04T06:13:53;99695.16;;;17.58;35.08
67738;BME280;54534;43.612;1.572;2023-03-04T06:16:19;99700.47;;;17.58;34.99
67738;BME280;54534;43.612;1.572;2023-03-04T06:18:44;99700.47;;;17.58;35.24
67738;BME280;54534;43.612;1.572;2023-03-04T06:21:10;99695.16;;;17.58;35.42
67738;BME280;54534;43.612;1.572;2023-03-04T06:23:35;99707.41;;;17.61;35.12
67738;BME280;54534;43.612;1.572;2023-03-04T06:26:00;99702.19;;;17.59;35.44
67738;BME280;54534;43.612;1.572;2023-03-04T06:28:26;99702.19;;;17.59;35.13
67738;BME280;54534;43.612;1.572;2023-03-04T06:30:53;99714.44;;;17.62;35.40
67738;BME280;54534;43.612;1.572;2023-03-04T06:33:19;99710.06;;;17.61;35.13
67738;BME280;54534;43.612;1.572;2023-03-04T06:35:45;99720.59;;;17.62;35.03
67738;BME280;54534;43.612;1.572;2023-03-04T06:38:10;99717.09;;;17.62;34.93
67738;BME280;54534;43.612;1.572;2023-03-04T06:40:35;99727.72;;;17.62;35.10
67738;BME280;54534;43.612;1.572;2023-03-04T06:43:01;99730.25;;;17.63;35.18
67738;BME280;54534;43.612;1.572;2023-03-04T06:45:26;99733.91;;;17.62;35.16
67738;BME280;54534;43.612;1.572;2023-03-04T06:47:52;99739.22;;;17.62;34.95
67738;BME280;54534;43.612;1.572;2023-03-04T06:50:17;99743.56;;;17.63;35.20
67738;BME280;54534;43.612;1.572;2023-03-04T06:52:43;99734.72;;;17.63;35.22
67738;BME280;54534;43.612;1.572;2023-03-04T06:55:08;99747.06;;;17.64;35.14
67738;BME280;54534;43.612;1.572;2023-03-04T06:57:34;99742.63;;;17.64;34.92
67738;BME280;54534;43.612;1.572;2023-03-04T06:59:59;99751.53;;;17.63;35.08
67738;BME280;54534;43.612;1.572;2023-03-04T07:02:27;99758.47;;;17.66;34.88
67738;BME280;54534;43.612;1.572;2023-03-04T07:04:52;99758.56;;;17.64;35.25
67738;BME280;54534;43.612;1.572;2023-03-04T07:07:18;99754.94;;;17.65;34.93
67738;BME280;54534;43.612;1.572;2023-03-04T07:09:43;99760.25;;;17.65;35.29
67738;BME280;54534;43.612;1.572;2023-03-04T07:12:09;99764.63;;;17.66;35.11
67738;BME280;54534;43.612;1.572;2023-03-04T07:14:34;99758.47;;;17.66;35.32
67738;BME280;54534;43.612;1.572;2023-03-04T07:16:59;99763.78;;;17.66;35.02
67738;BME280;54534;43.612;1.572;2023-03-04T07:19:25;99759.31;;;17.66;34.92
67738;BME280;54534;43.612;1.572;2023-03-04T07:21:50;99765.50;;;17.67;35.17
67738;BME280;54534;43.612;1.572;2023-03-04T07:24:16;99757.59;;;17.65;35.26
67738;BME280;54534;43.612;1.572;2023-03-04T07:26:41;99757.50;;;17.67;34.98
67738;BME280;54534;43.612;1.572;2023-03-04T07:29:06;99760.16;;;17.67;35.00
67738;BME280;54534;43.612;1.572;2023-03-04T07:31:33;99769.00;;;17.67;35.14
67738;BME280;54534;43.612;1.572;2023-03-04T07:34:05;99771.56;;;17.69;35.17
67738;BME280;54534;43.612;1.572;2023-03-04T07:36:32;99771.66;;;17.67;35.20
67738;BME280;54534;43.612;1.572;2023-03-04T07:38:57;99774.22;;;17.69;35.17
67738;BME280;54534;43.612;1.572;2023-03-04T07:41:25;99775.06;;;17.70;35.57
67738;BME280;54534;43.612;1.572;2023-03-04T07:43:51;99777.72;;;17.70;35.26
67738;BME280;54534;43.612;1.572;2023-03-04T07:46:17;99771.56;;;17.69;35.51
67738;BME280;54534;43.612;1.572;2023-03-04T07:48:43;99777.59;;;17.71;35.42
67738;BME280;54534;43.612;1.572;2023-03-04T07:51:11;99775.81;;;17.72;35.56
67738;BME280;54534;43.612;1.572;2023-03-04T07:53:39;99778.47;;;17.72;35.44
67738;BME280;54534;43.612;1.572;2023-03-04T07:56:05;99779.41;;;17.71;35.48
67738;BME280;54534;43.612;1.572;2023-03-04T07:58:31;99786.44;;;17.72;35.58
67738;BME280;54534;43.612;1.572;2023-03-04T08:00:57;99790.06;;;17.71;35.42
67738;BME280;54534;43.612;1.572;2023-03-04T08:03:23;99787.38;;;17.71;35.43
67738;BME280;54534;43.612;1.572;2023-03-04T08:05:49;99791.75;;;17.72;35.54
67738;BME280;54534;43.612;1.572;2023-03-04T08:08:14;99787.31;;;17.72;35.66
67738;BME280;54534;43.612;1.572;2023-03-04T08:10:40;99789.09;;;17.72;35.33
67738;BME280;54534;43.612;1.572;2023-03-04T08:13:06;99778.47;;;17.72;35.41
67738;BME280;54534;43.612;1.572;2023-03-04T08:15:32;99776.66;;;17.72;35.77
67738;BME280;54534;43.612;1.572;2023-03-04T08:18:00;99784.53;;;17.74;36.07
67738;BME280;54534;43.612;1.572;2023-03-04T08:20:25;99785.50;;;17.73;36.03
67738;BME280;54534;43.612;1.572;2023-03-04T08:22:51;99784.66;;;17.72;36.17
67738;BME280;54534;43.612;1.572;2023-03-04T08:25:16;99794.22;;;17.75;36.04
67738;BME280;54534;43.612;1.572;2023-03-04T08:27:42;99792.41;;;17.75;36.11
67738;BME280;54534;43.612;1.572;2023-03-04T08:30:08;99797.75;;;17.75;36.12
67738;BME280;54534;43.612;1.572;2023-03-04T08:32:33;99788.91;;;17.75;35.94
67738;BME280;54534;43.612;1.572;2023-03-04T08:34:59;99786.25;;;17.75;35.97
67738;BME280;54534;43.612;1.572;2023-03-04T08:37:28;99794.97;;;17.77;36.23
67738;BME280;54534;43.612;1.572;2023-03-04T08:39:53;99790.50;;;17.77;36.07
67738;BME280;54534;43.612;1.572;2023-03-04T08:42:19;99787.00;;;17.77;36.34
67738;BME280;54534;43.612;1.572;2023-03-04T08:44:44;99786.03;;;17.78;35.89
67738;BME280;54534;43.612;1.572;2023-03-04T08:47:09;99780.72;;;17.78;35.83
67738;BME280;54534;43.612;1.572;2023-03-04T08:49:35;99782.41;;;17.79;36.20
67738;BME280;54534;43.612;1.572;2023-03-04T08:52:01;99786.78;;;17.80;36.02
67738;BME280;54534;43.612;1.572;2023-03-04T08:54:26;99784.13;;;17.80;35.92
67738;BME280;54534;43.612;1.572;2023-03-04T08:56:52;99782.41;;;17.79;36.12
67738;BME280;54534;43.612;1.572;2023-03-04T08:59:17;99785.06;;;17.79;35.87
67738;BME280;54534;43.612;1.572;2023-03-04T09:01:42;99782.41;;;17.79;35.89
67738;BME280;54534;43.612;1.572;2023-03-04T09:04:08;99782.41;;;17.79;36.04
67738;BME280;54534;43.612;1.572;2023-03-04T09:06:33;99780.59;;;17.79;36.33
67738;BME280;54534;43.612;1.572;2023-03-04T09:09:02;99777.00;;;17.81;36.34
67738;BME280;54534;43.612;1.572;2023-03-04T09:11:28;99785.81;;;17.81;36.12
67738;BME280;54534;43.612;1.572;2023-03-04T09:13:53;99778.81;;;17.80;36.23
67738;BME280;54534;43.612;1.572;2023-03-04T09:16:19;99777.00;;;17.81;36.37
67738;BME280;54534;43.612;1.572;2023-03-04T09:18:44;99777.81;;;17.81;35.89
67738;BME280;54534;43.612;1.572;2023-03-04T09:21:10;99772.63;;;17.79;36.32
67738;BME280;54534;43.612;1.572;2023-03-04T09:23:36;99779.66;;;17.81;35.96
67738;BME280;54534;43.612;1.572;2023-03-04T09:26:17;99777.94;;;17.79;36.06
67738;BME280;54534;43.612;1.572;2023-03-04T09:28:43;99776.16;;;17.80;36.18
67738;BME280;54534;43.612;1.572;2023-03-04T09:31:13;99778.81;;;17.80;35.80
67738;BME280;54534;43.612;1.572;2023-03-04T09:33:39;99779.66;;;17.81;36.12
67738;BME280;54534;43.612;1.572;2023-03-04T09:36:11;99777.81;;;17.81;36.16
67738;BME280;54534;43.612;1.572;2023-03-04T09:38:37;99776.16;;;17.80;36.17
67738;BME280;54534;43.612;1.572;2023-03-04T09:41:06;99781.34;;;17.82;35.81
67738;BME280;54534;43.612;1.572;2023-03-04T09:43:32;99781.34;;;17.82;35.96
67738;BME280;54534;43.612;1.572;2023-03-04T09:46:03;99784.88;;;17.82;35.89
67738;BME280;54534;43.612;1.572;2023-03-04T09:48:38;99772.50;;;17.81;35.95
67738;BME280;54534;43.612;1.572;2023-03-04T09:54:09;99783.06;;;17.83;35.57
67738;BME280;54534;43.612;1.572;2023-03-04T09:56:39;99773.38;;;17.82;35.81
67738;BME280;54534;43.612;1.572;2023-03-04T09:59:29;99776.03;;;17.82;35.68
67738;BME280;54534;43.612;1.572;2023-03-04T10:01:58;99769.03;;;17.81;35.81
67738;BME280;54534;43.612;1.572;2023-03-04T10:04:47;99775.16;;;17.81;35.62
67738;BME280;54534;43.612;1.572;2023-03-04T10:07:25;99780.50;;;17.81;35.89
67738;BME280;54534;43.612;1.572;2023-03-04T10:10:03;99780.50;;;17.81;35.91
67738;BME280;54534;43.612;1.572;2023-03-04T10:12:31;99773.50;;;17.80;35.90
67738;BME280;54534;43.612;1.572;2023-03-04T10:15:22;99763.91;;;17.77;35.49
67738;BME280;54534;43.612;1.572;2023-03-04T10:17:56;99774.34;;;17.81;35.71
67738;BME280;54534;43.612;1.572;2023-03-04T10:20:45;99770.72;;;17.82;35.55
67738;BME280;54534;43.612;1.572;2023-03-04T10:23:18;99774.22;;;17.82;35.79
67738;BME280;54534;43.612;1.572;2023-03-04T10:25:45;99759.44;;;17.78;35.83
67738;BME280;54534;43.612;1.572;2023-03-04T10:28:15;99764.53;;;17.81;35.65
67738;BME280;54534;43.612;1.572;2023-03-04T10:33:43;99754.53;;;17.85;35.44
67738;BME280;54534;43.612;1.572;2023-03-04T10:38:58;99748.38;;;17.84;35.37
67738;BME280;54534;43.612;1.572;2023-03-04T10:41:26;99752.81;;;17.84;35.41
67738;BME280;54534;43.612;1.572;2023-03-04T10:46:36;99754.53;;;17.85;35.51
67738;BME280;54534;43.612;1.572;2023-03-04T10:49:02;99752.81;;;17.84;35.73
67738;BME280;54534;43.612;1.572;2023-03-04T10:51:28;99752.00;;;17.83;35.65
67738;BME280;54534;43.612;1.572;2023-03-04T11:01:49;99743.78;;;17.86;35.38
67738;BME280;54534;43.612;1.572;2023-03-04T11:04:16;99743.78;;;17.86;35.65
67738;BME280;54534;43.612;1.572;2023-03-04T11:06:42;99738.47;;;17.86;35.77
67738;BME280;54534;43.612;1.572;2023-03-04T11:09:20;99734.13;;;17.85;35.29
67738;BME280;54534;43.612;1.572;2023-03-04T11:11:49;99728.59;;;17.88;35.64
67738;BME280;54534;43.612;1.572;2023-03-04T11:16:52;99733.06;;;17.88;35.46
67738;BME280;54534;43.612;1.572;2023-03-04T11:19:19;99729.53;;;17.87;35.34
67738;BME280;54534;43.612;1.572;2023-03-04T11:21:48;99734.00;;;17.87;35.71
67738;BME280;54534;43.612;1.572;2023-03-04T11:24:29;99731.34;;;17.87;35.21
67738;BME280;54534;43.612;1.572;2023-03-04T11:27:00;99742.09;;;17.85;35.58
67738;BME280;54534;43.612;1.572;2023-03-04T11:29:37;99726.13;;;17.85;35.54
67738;BME280;54534;43.612;1.572;2023-03-04T11:32:20;99728.06;;;17.83;35.23
67738;BME280;54534;43.612;1.572;2023-03-04T11:34:57;99724.53;;;17.83;35.56
67738;BME280;54534;43.612;1.572;2023-03-04T11:37:32;99721.75;;;17.84;35.35
67738;BME280;54534;43.612;1.572;2023-03-04T11:45:04;99717.19;;;17.86;35.07
67738;BME280;54534;43.612;1.572;2023-03-04T11:50:22;99701.13;;;17.88;35.84
67738;BME280;54534;43.612;1.572;2023-03-04T11:53:07;99698.34;;;17.89;35.83
67738;BME280;54534;43.612;1.572;2023-03-04T12:07:10;99681.97;;;17.96;35.67
67738;BME280;54534;43.612;1.572;2023-03-04T12:09:45;99673.00;;;17.97;36.00
67738;BME280;54534;43.612;1.572;2023-03-04T12:15:13;99676.44;;;17.99;35.94
67738;BME280;54534;43.612;1.572;2023-03-04T12:21:09;99667.47;;;18.00;35.69
67738;BME280;54534;43.612;1.572;2023-03-04T12:46:31;99616.72;;;18.03;36.22
67738;BME280;54534;43.612;1.572;2023-03-04T12:48:43;99622.03;;;18.03;36.50
67738;BME280;54534;43.612;1.572;2023-03-04T12:51:38;99614.91;;;18.04;36.14
67738;BME280;54534;43.612;1.572;2023-03-04T12:59:37;99591.09;;;18.02;35.78
67738;BME280;54534;43.612;1.572;2023-03-04T13:10:00;99591.09;;;18.02;36.28
67738;BME280;54534;43.612;1.572;2023-03-04T13:12:54;99585.78;;;18.02;35.95
67738;BME280;54534;43.612;1.572;2023-03-04T13:17:49;99580.44;;;18.02;35.91
67738;BME280;54534;43.612;1.572;2023-03-04T13:20:32;99577.78;;;18.02;36.30
67738;BME280;54534;43.612;1.572;2023-03-04T13:28:13;99574.28;;;18.01;36.13
67738;BME280;54534;43.612;1.572;2023-03-04T13:38:23;99567.88;;;18.04;36.86
67738;BME280;54534;43.612;1.572;2023-03-04T13:43:38;99572.34;;;18.04;37.14
67738;BME280;54534;43.612;1.572;2023-03-04T13:56:46;99552.78;;;18.05;37.16
67738;BME280;54534;43.612;1.572;2023-03-04T13:59:20;99558.09;;;18.05;36.74
67738;BME280;54534;43.612;1.572;2023-03-04T14:04:33;99548.28;;;18.05;37.25
67738;BME280;54534;43.612;1.572;2023-03-04T14:07:02;99543.06;;;18.04;36.88
67738;BME280;54534;43.612;1.572;2023-03-04T14:09:32;99551.91;;;18.04;36.92
67738;BME280;54534;43.612;1.572;2023-03-04T14:12:02;99548.41;;;18.04;37.02
67738;BME280;54534;43.612;1.572;2023-03-04T14:14:49;99541.28;;;18.04;36.75
67738;BME280;54534;43.612;1.572;2023-03-04T14:17:24;99541.47;;;18.01;34.86
67738;BME280;54534;43.612;1.572;2023-03-04T14:19:51;99538.00;;;17.87;34.37
67738;BME280;54534;43.612;1.572;2023-03-04T14:24:56;99528.38;;;17.60;33.91
67738;BME280;54534;43.612;1.572;2023-03-04T14:27:21;99522.03;;;17.50;33.47
67738;BME280;54534;43.612;1.572;2023-03-04T14:29:54;99518.63;;;17.48;33.79
67738;BME280;54534;43.612;1.572;2023-03-04T14:32:20;99516.19;;;17.44;33.50
67738;BME280;54534;43.612;1.572;2023-03-04T14:34:48;99515.25;;;17.45;33.37
67738;BME280;54534;43.612;1.572;2023-03-04T14:37:20;99520.44;;;17.47;33.54
67738;BME280;54534;43.612;1.572;2023-03-04T14:39:49;99514.16;;;17.48;33.64
67738;BME280;54534;43.612;1.572;2023-03-04T14:42:16;99522.03;;;17.50;33.70
67738;BME280;54534;43.612;1.572;2023-03-04T14:44:48;99519.28;;;17.51;33.45
67738;BME280;54534;43.612;1.572;2023-03-04T14:47:19;99510.31;;;17.52;33.57
67738;BME280;54534;43.612;1.572;2023-03-04T14:49:46;99512.88;;;17.54;34.08
67738;BME280;54534;43.612;1.572;2023-03-04T14:57:51;99503.84;;;17.56;34.09
67738;BME280;54534;43.612;1.572;2023-03-04T15:00:29;99505.44;;;17.59;34.21
67738;BME280;54534;43.612;1.572;2023-03-04T15:03:00;99501.81;;;17.60;34.40
67738;BME280;54534;43.612;1.572;2023-03-04T15:05:31;99503.50;;;17.61;34.53
67738;BME280;54534;43.612;1.572;2023-03-04T15:08:15;99502.56;;;17.62;34.54